Virtual LH

Virtual LH. There's no better way to fly
Since 2013.



AIRPORT MAP

METAR AND TAF INFORMATION

METAR FOR VHHH
ADDS - METARS form results

(0621 UTC 20 April 2019)
Data provider http://aviationweather.gov/metar/data/
 
METAR text: VHHH 200610Z 26017KT 0550 R07R/0650N R25L/0900N R07L/0750D R25R/1000N +TSRA FEW006 FEW012CB SCT020 OVC040 22/22 Q1008 TEMPO VRB20G30KT 2500 TSRA SHRA FEW008 SCT015CB BKN040
Conditions at: VHHH (HONG KONG INTL , HK) observed 0610 UTC 20 April 2019
Temperature: 22.0°C (72°F)
Dewpoint: 22.0°C (72°F) [RH = 100%]
Pressure (altimeter): 29.76 inches Hg (1008.0 mb)
Winds: from the W (260 degrees) at 20 MPH (17 knots; 8.7 m/s)
Visibility: 0.34 miles (0.55 km)
Ceiling: 4000 feet AGL
Clouds: few clouds at 600 feet AGL
few clouds at 1200 feet AGL
scattered clouds at 2000 feet AGL
overcast cloud deck at 4000 feet AGL
Weather: +TSRA  (heavy rain associated with thunderstorm(s))

METAR text: VHHH 200600Z 30029G41KT 0800 0700W R07R/1600D R25L/1600D R07L/1100D R25R/1900D +TSRA FEW006 FEW012CB SCT020 OVC040 23/22 Q1007 TEMPO VRB20G30KT 2500 TSRA SHRA FEW008 SCT015CB BKN040
Conditions at: VHHH (HONG KONG INTL , HK) observed 0600 UTC 20 April 2019
Temperature: 23.0°C (73°F)
Dewpoint: 22.0°C (72°F) [RH = 94%]
Pressure (altimeter): 29.73 inches Hg (1007.0 mb)
Winds: from the WNW (300 degrees) at 33 MPH (29 knots; 14.9 m/s)
gusting to 47 MPH (41 knots; 21.1 m/s)
Visibility: 0.50 miles (0.80 km)
Ceiling: 4000 feet AGL
Clouds: few clouds at 600 feet AGL
few clouds at 1200 feet AGL
scattered clouds at 2000 feet AGL
overcast cloud deck at 4000 feet AGL
Weather: +TSRA  (heavy rain associated with thunderstorm(s))

METAR text: VHHH 200556Z 28028G41KT 230V300 2400 1300W R07R/P2000D R25L/P2000D R07L/1800D R25R/P2000D +TSRA FEW006 FEW015CB SCT025 BKN040 23/22 Q1006 TEMPO VRB20G30KT 2500 TSRA SHRA FEW008 SCT015CB BKN040
Conditions at: VHHH (HONG KONG INTL , HK) observed 0556 UTC 20 April 2019
Temperature: 23.0°C (73°F)
Dewpoint: 22.0°C (72°F) [RH = 94%]
Pressure (altimeter): 29.70 inches Hg (1006.0 mb)
Winds: from the W (280 degrees) at 32 MPH (28 knots; 14.4 m/s)
gusting to 47 MPH (41 knots; 21.1 m/s)
Visibility: 1.49 miles (2.40 km)
Ceiling: 4000 feet AGL
Clouds: few clouds at 600 feet AGL
few clouds at 1500 feet AGL
scattered clouds at 2500 feet AGL
broken clouds at 4000 feet AGL
Weather: +TSRA  (heavy rain associated with thunderstorm(s))

METAR text: VHHH 200553Z 26023G41KT 210V300 3900 +TSRA FEW006 FEW015CB SCT025 BKN040 24/22 Q1006 TEMPO VRB20G30KT 2500 TSRA SHRA FEW008 SCT015CB BKN040
Conditions at: VHHH (HONG KONG INTL , HK) observed 0553 UTC 20 April 2019
Temperature: 24.0°C (75°F)
Dewpoint: 22.0°C (72°F) [RH = 89%]
Pressure (altimeter): 29.70 inches Hg (1006.0 mb)
Winds: from the W (260 degrees) at 26 MPH (23 knots; 11.8 m/s)
gusting to 47 MPH (41 knots; 21.1 m/s)
Visibility: 2.42 miles (3.89 km)
Ceiling: 4000 feet AGL
Clouds: few clouds at 600 feet AGL
few clouds at 1500 feet AGL
scattered clouds at 2500 feet AGL
broken clouds at 4000 feet AGL
Weather: +TSRA  (heavy rain associated with thunderstorm(s))

METAR text: VHHH 200544Z 21014KT 9999 -TSRA FEW010 FEW015CB SCT025 BKN045 28/25 Q1005 TEMPO VRB20G30KT 2500 TSRA SHRA FEW008 SCT015CB BKN040
Conditions at: VHHH (HONG KONG INTL , HK) observed 0544 UTC 20 April 2019
Temperature: 28.0°C (82°F)
Dewpoint: 25.0°C (77°F) [RH = 84%]
Pressure (altimeter): 29.68 inches Hg (1005.0 mb)
Winds: from the SSW (210 degrees) at 16 MPH (14 knots; 7.2 m/s)
Visibility: 6 or more miles (10+ km)
Ceiling: 4500 feet AGL
Clouds: few clouds at 1000 feet AGL
few clouds at 1500 feet AGL
scattered clouds at 2500 feet AGL
broken clouds at 4500 feet AGL
Weather: -TSRA  (light rain associated with thunderstorm(s))

METAR text: VHHH 200530Z 21014KT 9999 -SHRA FEW010 FEW015CB SCT025 BKN045 29/24 Q1005 TEMPO VRB20G30KT 2500 TSRA SHRA FEW008 SCT015CB BKN040
Conditions at: VHHH (HONG KONG INTL , HK) observed 0530 UTC 20 April 2019
Temperature: 29.0°C (84°F)
Dewpoint: 24.0°C (75°F) [RH = 74%]
Pressure (altimeter): 29.68 inches Hg (1005.0 mb)
Winds: from the SSW (210 degrees) at 16 MPH (14 knots; 7.2 m/s)
Visibility: 6 or more miles (10+ km)
Ceiling: 4500 feet AGL
Clouds: few clouds at 1000 feet AGL
few clouds at 1500 feet AGL
scattered clouds at 2500 feet AGL
broken clouds at 4500 feet AGL
Weather: -SHRA  (light rain showers)

Forecast for: VHHH (HONG KONG INTL , HK)
Text: TAF VHHH 200500Z 2006/2112 15010KT 9000 FEW010 SCT025 TX28/2006Z TX29/2106Z TN24/2022Z
Forecast period: 0600 UTC 20 April 2019 to 0200 UTC 21 April 2019
Forecast type: FROM: standard forecast or significant change
Winds: from the SSE (150 degrees) at 12 MPH (10 knots; 5.1 m/s)
Visibility: 6 miles (9 km)
Ceiling: at least 12,000 feet AGL
Clouds: few clouds at 1000 feet AGL
scattered clouds at 2500 feet AGL
Weather: no significant weather forecast for this period
Text: TEMPO 2006/2009 VRB20G30KT 2500 TSRA SHRA FEW008 SCT015CB BKN040
Forecast period: 0600 to 0900 UTC 20 April 2019
Forecast type: TEMPORARY: The following changes expected for less than half the time period
Winds: variable direction winds at 23 MPH (20 knots; 10.3 m/s)
gusting to 34 MPH (30 knots; 15.4 m/s)
Visibility: 1.55 miles (2.49 km)
Ceiling: 4000 feet AGL
Clouds: few clouds at 800 feet AGL
scattered clouds at 1500 feet AGL
broken clouds at 4000 feet AGL
Weather: TSRA SHRA  (rain associated with thunderstorm(s), rain showers)
Text: TEMPO 2009/2012 4000 SHRA FEW010CB SCT020
Forecast period: 0900 to 1200 UTC 20 April 2019
Forecast type: TEMPORARY: The following changes expected for less than half the time period
Visibility: 2.49 miles (4.01 km)
Ceiling: at least 12,000 feet AGL
Clouds: few clouds at 1000 feet AGL
scattered clouds at 2000 feet AGL
Weather: SHRA  (rain showers)
Text: TEMPO 2015/2103 4000 SHRA FEW010CB SCT020
Forecast period: 1500 UTC 20 April 2019 to 0300 UTC 21 April 2019
Forecast type: TEMPORARY: The following changes expected for less than half the time period
Visibility: 2.49 miles (4.01 km)
Ceiling: at least 12,000 feet AGL
Clouds: few clouds at 1000 feet AGL
scattered clouds at 2000 feet AGL
Weather: SHRA  (rain showers)
Text: BECMG 2102/2104 21010KT
Forecast period: 0200 to 1200 UTC 21 April 2019
Forecast type: BECOMING: Conditions expected to become as follows by 0400 UTC 21 April 2019
Winds: from the SSW (210 degrees) at 12 MPH (10 knots; 5.1 m/s)
Visibility: 6 miles (9 km)
Ceiling: at least 12,000 feet AGL
Clouds: few clouds at 1000 feet AGL
scattered clouds at 2500 feet AGL
Weather: no significant weather forecast for this period

RUNWAY INFORMATION

Runway 07L Runway length 12467 ft Runway width 197 ft
Runway elevation 22 ft Runway displaced threshold 565 ft Runway heading 71
Runway 25R Runway length 12467 ft Runway width 197 ft
Runway elevation 23 ft Runway displaced threshold 580 ft Runway heading 251
Runway 07R Runway length 12467 ft Runway width 197 ft
Runway elevation 28 ft Runway displaced threshold 525 ft Runway heading 71
Runway 25L Runway length 12467 ft Runway width 197 ft
Runway elevation 27 ft Runway displaced threshold 0 ft Runway heading 251

AIRPORT FREQUENCIES

Type AFIS Name FLIGHT SER Frequency 122.4 MHZ
Type APP Name APP Frequency 119.1 MHZ
Type APP Name Director Frequency 119.5 MHZ
Type ATIS-A Name Arrivel Frequency 128.2 MHZ
Type ATIS-D Name Departure Frequency 127.05 MHZ
Type CAC Name ZONE CON Frequency 120.6 MHZ
Type CLD Name CLNC DEL Frequency 129.9 MHZ
Type DEP Name DEP Frequency 123.8 MHZ
Type EMG Name Hong Kong Frequency 121.5 MHZ
Type GND Name GND North Frequency 121.6 MHZ
Type GND Name GND South Frequency 122.55 MHZ
Type RDR Name Radar Frequency 121.3 MHZ
Type RDR Name PRECISION Frequency 133.7 MHZ
Type TWR Name Tower Nort Frequency 118.2 MHZ
Type TWR Name TWR South Frequency 118.4 MHZ

AIRPORT NEAR NAVIGATION AIDS

Type VOR-DME Name Cheung Chau Frequency 112300 KHZ
Type NDB Name Cape D Aguilar Frequency 338 KHZ
Type NDB Name Lam Chau Frequency 390 KHZ
Type VOR-DME Name Lung Kwu Chau Frequency 113200 KHZ
Type VOR-DME Name Siu Mo To Frequency 114800 KHZ
Type VOR-DME Name Tathong Point Frequency 115500 KHZ